createdAt,value
2018-08-30T00:02:23.161Z,88.10
2018-08-30T00:04:54.403Z,88.20
2018-08-30T00:07:23.264Z,88.00
2018-08-30T00:09:52.486Z,88.20
2018-08-30T00:12:21.425Z,88.30
2018-08-30T00:14:50.239Z,88.60
2018-08-30T00:17:19.269Z,88.80
2018-08-30T00:19:48.226Z,88.90
2018-08-30T00:22:16.938Z,89.10
2018-08-30T00:24:47.076Z,89.20
2018-08-30T00:27:16.248Z,89.40
2018-08-30T00:29:45.123Z,89.20
2018-08-30T00:32:14.012Z,89.40
2018-08-30T00:34:43.125Z,88.90
2018-08-30T00:37:11.812Z,88.60
2018-08-30T00:39:40.761Z,88.50
2018-08-30T00:42:09.753Z,88.60
2018-08-30T00:44:38.783Z,88.70
2018-08-30T00:47:07.948Z,88.70
2018-08-30T00:49:36.801Z,88.80
2018-08-30T00:52:05.551Z,88.90
2018-08-30T00:54:34.222Z,88.90
2018-08-30T00:57:03.200Z,89.10
2018-08-30T00:59:32.082Z,88.90
2018-08-30T01:02:01.288Z,89.10
2018-08-30T01:04:30.084Z,88.60
2018-08-30T01:06:58.756Z,88.80
2018-08-30T01:09:27.698Z,88.90
2018-08-30T01:11:57.001Z,89.30
2018-08-30T01:14:25.658Z,89.30
2018-08-30T01:16:54.373Z,89.10
2018-08-30T01:19:23.339Z,88.50
2018-08-30T01:21:52.345Z,87.90
2018-08-30T01:24:21.107Z,88.20
2018-08-30T01:26:49.825Z,87.90
2018-08-30T01:29:19.186Z,88.10
2018-08-30T01:31:48.091Z,88.10
2018-08-30T01:34:17.289Z,88.30
2018-08-30T01:36:45.986Z,88.30
2018-08-30T01:39:14.677Z,88.40
2018-08-30T01:41:44.254Z,88.30
2018-08-30T01:44:15.351Z,88.40
2018-08-30T01:46:44.066Z,88.50
2018-08-30T01:49:12.774Z,88.50
2018-08-30T01:51:41.493Z,88.50
2018-08-30T01:54:10.456Z,88.70
2018-08-30T01:56:39.103Z,88.80
2018-08-30T01:59:08.150Z,88.70
2018-08-30T02:01:36.841Z,88.80
2018-08-30T02:04:05.571Z,88.80
2018-08-30T02:06:34.296Z,89.10
2018-08-30T02:09:04.466Z,88.90
2018-08-30T02:11:33.421Z,89.30
2018-08-30T02:14:02.028Z,89.50
2018-08-30T02:16:31.162Z,89.40
2018-08-30T02:18:59.777Z,89.50
2018-08-30T02:21:28.697Z,89.60
2018-08-30T02:23:57.505Z,89.60
2018-08-30T02:26:26.425Z,89.70
2018-08-30T02:28:55.421Z,89.50
2018-08-30T02:31:24.330Z,89.60
2018-08-30T02:33:53.291Z,89.40
2018-08-30T02:36:22.309Z,89.50
2018-08-30T02:38:51.034Z,89.40
2018-08-30T02:41:19.735Z,89.20
2018-08-30T02:43:48.467Z,89.20
2018-08-30T02:46:17.178Z,88.90
2018-08-30T02:48:45.843Z,88.80
2018-08-30T02:51:14.543Z,88.80
2018-08-30T02:53:43.338Z,88.90
2018-08-30T02:56:11.990Z,88.90
2018-08-30T02:58:41.058Z,88.80
2018-08-30T03:01:09.766Z,88.70
2018-08-30T03:03:38.496Z,88.90
2018-08-30T03:06:07.391Z,88.80
2018-08-30T03:08:36.150Z,88.80
2018-08-30T03:11:05.122Z,88.90
2018-08-30T03:13:33.893Z,89.10
2018-08-30T03:16:02.584Z,88.90
2018-08-30T03:18:31.539Z,88.80
2018-08-30T03:21:00.314Z,88.80
2018-08-30T03:23:29.065Z,88.90
2018-08-30T03:25:57.807Z,88.90
2018-08-30T03:28:26.465Z,88.80
2018-08-30T03:30:55.181Z,88.60
2018-08-30T03:33:23.840Z,88.70
2018-08-30T03:35:52.465Z,88.60
2018-08-30T03:38:21.244Z,88.50
2018-08-30T03:40:49.958Z,88.50
2018-08-30T03:43:18.788Z,88.50
2018-08-30T03:45:47.678Z,88.50
2018-08-30T03:48:16.426Z,88.40
2018-08-30T03:50:45.382Z,88.30
2018-08-30T03:53:14.122Z,88.30
2018-08-30T03:55:42.822Z,88.30
2018-08-30T03:58:11.544Z,88.40
2018-08-30T04:00:40.310Z,88.30
2018-08-30T04:03:09.240Z,88.10
2018-08-30T04:05:37.909Z,88.20
2018-08-30T04:08:06.639Z,88.10
2018-08-30T04:10:35.346Z,88.20
2018-08-30T04:13:04.161Z,88.20
2018-08-30T04:15:32.916Z,88.30
2018-08-30T04:18:01.546Z,88.30
2018-08-30T04:20:30.413Z,88.40
2018-08-30T04:22:59.150Z,88.30
2018-08-30T04:25:27.890Z,88.30
2018-08-30T04:27:56.574Z,88.70
2018-08-30T04:30:25.459Z,88.30
2018-08-30T04:32:54.148Z,88.40
2018-08-30T04:35:22.873Z,88.40
2018-08-30T04:37:51.819Z,88.60
2018-08-30T04:40:20.503Z,88.40
2018-08-30T04:42:49.266Z,88.40
2018-08-30T04:45:18.149Z,88.60
2018-08-30T04:47:46.878Z,88.80
2018-08-30T04:50:15.748Z,88.90
2018-08-30T04:52:44.535Z,88.90
2018-08-30T04:55:13.230Z,89.20
2018-08-30T04:57:41.930Z,89.20
2018-08-30T05:00:10.701Z,89.40
2018-08-30T05:02:39.378Z,89.40
2018-08-30T05:05:08.126Z,89.80
2018-08-30T05:07:36.835Z,89.50
2018-08-30T05:10:05.730Z,89.70
2018-08-30T05:12:34.346Z,89.40
2018-08-30T05:15:03.116Z,89.40
2018-08-30T05:17:31.978Z,89.40
2018-08-30T05:20:00.686Z,89.50
2018-08-30T05:22:29.442Z,89.50
2018-08-30T05:24:58.362Z,89.60
2018-08-30T05:27:27.097Z,89.40
2018-08-30T05:29:55.921Z,89.50
2018-08-30T05:32:24.611Z,89.50
2018-08-30T05:34:53.742Z,89.50
2018-08-30T05:37:22.464Z,89.60
2018-08-30T05:39:51.227Z,89.70
2018-08-30T05:42:19.885Z,89.60
2018-08-30T05:44:48.638Z,89.50
2018-08-30T05:47:17.465Z,89.70
2018-08-30T05:49:46.148Z,89.80
2018-08-30T05:52:14.858Z,89.80
2018-08-30T05:54:43.799Z,89.80
2018-08-30T05:57:12.614Z,89.50
2018-08-30T05:59:41.308Z,89.60
2018-08-30T06:02:10.034Z,89.50
2018-08-30T06:04:38.838Z,89.30
2018-08-30T06:07:07.812Z,89.10
2018-08-30T06:09:36.431Z,88.90
2018-08-30T06:12:05.134Z,89.50
2018-08-30T06:14:34.262Z,89.30
2018-08-30T06:17:03.211Z,89.50
2018-08-30T06:19:31.880Z,89.10
2018-08-30T06:22:00.634Z,88.90
2018-08-30T06:24:29.322Z,89.20
2018-08-30T06:26:58.204Z,89.30
2018-08-30T06:29:27.130Z,89.30
2018-08-30T06:31:55.754Z,88.80
2018-08-30T06:34:24.743Z,88.90
2018-08-30T06:36:53.389Z,88.80
2018-08-30T06:39:22.279Z,88.90
2018-08-30T06:41:51.263Z,89.20
2018-08-30T06:44:20.489Z,89.30
2018-08-30T06:46:49.388Z,89.80
2018-08-30T06:49:18.438Z,89.60
2018-08-30T06:51:47.175Z,89.80
2018-08-30T06:54:16.319Z,89.50
2018-08-30T06:56:45.038Z,89.10
2018-08-30T06:59:14.011Z,88.50
2018-08-30T07:01:42.933Z,88.50
2018-08-30T07:04:11.767Z,88.30
2018-08-30T07:06:40.376Z,86.70
2018-08-30T07:09:11.227Z,86.80
2018-08-30T07:11:39.916Z,86.50
2018-08-30T07:14:09.203Z,87.30
2018-08-30T07:16:38.132Z,87.40
2018-08-30T07:19:06.872Z,87.20
2018-08-30T07:21:35.892Z,87.40
2018-08-30T07:24:04.730Z,87.80
2018-08-30T07:26:33.475Z,87.40
2018-08-30T07:29:02.174Z,87.40
2018-08-30T07:31:30.815Z,86.60
2018-08-30T07:33:59.566Z,86.20
2018-08-30T07:36:28.290Z,85.70
2018-08-30T07:38:57.295Z,86.30
2018-08-30T07:41:25.956Z,86.00
2018-08-30T07:43:54.834Z,86.50
2018-08-30T07:46:23.418Z,85.70
2018-08-30T07:48:52.146Z,85.80
2018-08-30T07:51:20.816Z,86.20
2018-08-30T07:53:49.514Z,86.70
2018-08-30T07:56:18.169Z,86.80
2018-08-30T07:58:46.887Z,86.00
2018-08-30T08:01:15.626Z,85.70
2018-08-30T08:03:44.354Z,86.00
2018-08-30T08:06:13.019Z,86.40
2018-08-30T08:08:41.740Z,86.00
2018-08-30T08:11:10.413Z,86.00
2018-08-30T08:13:39.099Z,86.20
2018-08-30T08:16:08.137Z,86.40
2018-08-30T08:18:37.032Z,85.80
2018-08-30T08:21:06.134Z,85.80
2018-08-30T08:23:35.019Z,85.50
2018-08-30T08:26:03.941Z,85.40
2018-08-30T08:28:32.598Z,85.50
2018-08-30T08:31:01.683Z,85.90
2018-08-30T08:33:32.201Z,84.90
2018-08-30T08:36:01.826Z,84.60
2018-08-30T08:38:31.015Z,83.60
2018-08-30T08:40:59.941Z,83.00
2018-08-30T08:43:29.019Z,83.00
2018-08-30T08:45:57.833Z,83.40
2018-08-30T08:48:26.492Z,82.10
2018-08-30T08:50:55.206Z,79.50
2018-08-30T08:53:23.935Z,78.30
2018-08-30T08:55:52.625Z,78.50
2018-08-30T08:58:21.297Z,78.30
2018-08-30T09:00:50.022Z,77.80
2018-08-30T09:03:18.717Z,76.50
2018-08-30T09:05:47.450Z,73.10
2018-08-30T09:08:16.151Z,72.50
2018-08-30T09:10:44.958Z,73.40
2018-08-30T09:13:13.699Z,74.30
2018-08-30T09:15:43.227Z,74.40
2018-08-30T09:18:11.952Z,75.20
2018-08-30T09:20:40.666Z,75.00
2018-08-30T09:23:09.341Z,73.40
2018-08-30T09:25:37.978Z,73.80
2018-08-30T09:28:06.670Z,74.10
2018-08-30T09:30:35.345Z,73.70
2018-08-30T09:33:04.039Z,73.90
2018-08-30T09:35:32.836Z,74.90
2018-08-30T09:38:01.751Z,75.30
2018-08-30T09:40:30.414Z,74.20
2018-08-30T09:42:59.430Z,74.10
2018-08-30T09:45:28.173Z,74.00
2018-08-30T09:48:04.885Z,73.60
2018-08-30T09:50:33.635Z,73.90
2018-08-30T09:53:02.486Z,73.90
2018-08-30T09:55:31.225Z,73.70
2018-08-30T09:58:00.117Z,74.50
2018-08-30T10:00:34.038Z,72.30
2018-08-30T10:03:02.658Z,73.00
2018-08-30T10:05:31.748Z,71.00
2018-08-30T10:08:00.391Z,68.60
2018-08-30T10:10:29.054Z,67.10
2018-08-30T10:12:57.696Z,68.60
2018-08-30T10:15:26.590Z,68.40
2018-08-30T10:17:55.528Z,70.10
2018-08-30T10:20:24.192Z,70.30
2018-08-30T10:22:53.175Z,71.40
2018-08-30T10:25:21.867Z,72.00
2018-08-30T10:27:53.862Z,71.60
2018-08-30T10:30:22.514Z,72.00
2018-08-30T10:32:51.495Z,70.70
2018-08-30T10:35:20.175Z,71.00
2018-08-30T10:37:48.970Z,71.70
2018-08-30T10:40:17.828Z,71.00
2018-08-30T10:42:46.749Z,70.60
2018-08-30T10:45:15.395Z,71.00
2018-08-30T10:47:44.217Z,71.00
2018-08-30T10:50:12.906Z,71.20
2018-08-30T10:52:41.780Z,72.40
2018-08-30T10:55:10.487Z,73.20
2018-08-30T10:57:41.605Z,70.70
2018-08-30T11:00:10.327Z,70.50
2018-08-30T11:02:39.060Z,65.00
2018-08-30T11:05:07.817Z,64.30
2018-08-30T11:07:36.498Z,65.70
2018-08-30T11:10:05.661Z,66.60
2018-08-30T11:12:34.448Z,66.80
2018-08-30T11:15:03.149Z,66.20
2018-08-30T11:17:31.839Z,66.90
2018-08-30T11:20:00.598Z,67.00
2018-08-30T11:22:29.386Z,67.90
2018-08-30T11:24:58.112Z,68.10
2018-08-30T11:27:27.060Z,67.70
2018-08-30T11:29:55.773Z,67.00
2018-08-30T11:32:24.485Z,66.40
2018-08-30T11:34:53.135Z,66.50
2018-08-30T11:37:22.101Z,67.10
2018-08-30T11:39:50.824Z,67.30
2018-08-30T11:42:19.772Z,65.80
2018-08-30T11:44:48.696Z,66.40
2018-08-30T11:47:17.822Z,66.30
2018-08-30T11:49:46.519Z,68.20
2018-08-30T11:52:15.325Z,67.70
2018-08-30T11:54:44.149Z,68.40
2018-08-30T11:57:12.791Z,69.10
2018-08-30T11:59:41.734Z,67.90
2018-08-30T12:02:10.584Z,66.40
2018-08-30T12:04:40.037Z,65.80
2018-08-30T12:07:08.987Z,64.50
2018-08-30T12:09:37.999Z,63.20
2018-08-30T12:12:07.103Z,62.60
2018-08-30T12:14:35.982Z,62.50
2018-08-30T12:17:05.462Z,61.50
2018-08-30T12:19:34.470Z,62.10
2018-08-30T12:22:03.160Z,63.00
2018-08-30T12:24:31.846Z,63.80
2018-08-30T12:27:00.535Z,62.80
2018-08-30T12:29:29.431Z,59.60
2018-08-30T12:31:58.147Z,58.40
2018-08-30T12:34:26.970Z,58.00
2018-08-30T12:36:55.662Z,57.50
2018-08-30T12:39:24.348Z,58.60
2018-08-30T12:41:53.153Z,60.10
2018-08-30T12:44:21.814Z,60.90
2018-08-30T12:46:51.775Z,62.90
2018-08-30T12:49:21.435Z,64.40
2018-08-30T12:51:50.285Z,64.00
2018-08-30T12:54:18.993Z,63.00
2018-08-30T12:56:47.739Z,63.10
2018-08-30T12:59:18.530Z,59.60
2018-08-30T13:01:47.682Z,58.20
2018-08-30T13:04:16.417Z,58.10
2018-08-30T13:06:46.259Z,57.00
2018-08-30T13:09:16.225Z,58.80
2018-08-30T13:11:44.751Z,57.00
2018-08-30T13:14:13.478Z,57.30
2018-08-30T13:16:42.588Z,57.80
2018-08-30T13:19:11.347Z,56.50
2018-08-30T13:21:40.029Z,55.60
2018-08-30T13:24:08.688Z,55.70
2018-08-30T13:26:38.119Z,55.10
2018-08-30T13:29:06.831Z,55.20
2018-08-30T13:31:35.710Z,53.70
2018-08-30T13:34:05.207Z,54.20
2018-08-30T13:36:33.818Z,56.20
2018-08-30T13:39:02.615Z,58.10
2018-08-30T13:41:31.329Z,58.70
2018-08-30T13:43:59.866Z,60.20
2018-08-30T13:46:28.606Z,61.50
2018-08-30T13:48:57.419Z,62.00
2018-08-30T13:51:26.286Z,61.50
2018-08-30T13:53:55.007Z,60.80
2018-08-30T13:56:23.952Z,62.20
2018-08-30T13:58:53.089Z,64.50
2018-08-30T14:01:21.811Z,66.30
2018-08-30T14:03:50.531Z,69.40
2018-08-30T14:06:19.329Z,71.60
2018-08-30T14:08:48.001Z,73.60
2018-08-30T14:11:16.924Z,74.50
2018-08-30T14:13:45.826Z,75.00
2018-08-30T14:16:14.331Z,75.40
2018-08-30T14:18:43.344Z,76.20
2018-08-30T14:21:11.996Z,76.90
2018-08-30T14:23:40.643Z,78.00
2018-08-30T14:26:09.609Z,79.40
2018-08-30T14:28:38.604Z,80.30
2018-08-30T14:31:07.755Z,80.90
2018-08-30T14:33:36.552Z,80.90
2018-08-30T14:36:06.029Z,81.50
2018-08-30T14:38:34.948Z,82.30
2018-08-30T14:41:03.865Z,82.50
2018-08-30T14:43:32.500Z,82.70
2018-08-30T14:46:01.167Z,83.50
2018-08-30T14:48:30.071Z,83.90
2018-08-30T14:50:58.958Z,84.30
2018-08-30T14:53:27.805Z,85.10
2018-08-30T14:55:56.734Z,85.10
2018-08-30T14:58:25.993Z,85.90
2018-08-30T15:00:54.633Z,85.50
2018-08-30T15:03:23.715Z,85.10
2018-08-30T15:05:52.591Z,84.80
2018-08-30T15:08:21.196Z,85.10
2018-08-30T15:10:49.921Z,84.50
2018-08-30T15:13:18.756Z,84.50
2018-08-30T15:15:47.750Z,84.30
2018-08-30T15:18:16.559Z,84.20
2018-08-30T15:20:45.363Z,84.10
2018-08-30T15:23:14.140Z,84.00
2018-08-30T15:25:43.087Z,83.60
2018-08-30T15:28:11.770Z,83.60
2018-08-30T15:30:40.902Z,83.80
2018-08-30T15:33:09.673Z,83.70
2018-08-30T15:35:38.882Z,82.90
2018-08-30T15:38:07.851Z,82.50
2018-08-30T15:40:36.802Z,82.00
2018-08-30T15:43:05.850Z,82.00
2018-08-30T15:45:34.625Z,82.40
2018-08-30T15:48:03.408Z,82.40
2018-08-30T15:50:32.162Z,82.10
2018-08-30T15:53:00.988Z,81.00
2018-08-30T15:55:30.115Z,80.60
2018-08-30T15:57:58.805Z,79.80
2018-08-30T16:00:27.731Z,79.40
2018-08-30T16:02:56.365Z,78.30
2018-08-30T16:05:25.404Z,78.60
2018-08-30T16:07:54.102Z,79.10
2018-08-30T16:10:22.810Z,79.10
2018-08-30T16:12:51.863Z,79.30
2018-08-30T16:15:20.492Z,80.10
2018-08-30T16:17:49.217Z,80.20
2018-08-30T16:20:17.998Z,80.60
2018-08-30T16:22:54.763Z,80.80
2018-08-30T16:25:23.379Z,80.20
2018-08-30T16:27:52.400Z,80.70
2018-08-30T16:30:21.381Z,80.50
2018-08-30T16:32:50.140Z,80.00
2018-08-30T16:35:19.180Z,80.00
2018-08-30T16:37:48.120Z,79.90
2018-08-30T16:40:16.802Z,80.00
2018-08-30T16:42:45.531Z,79.40
2018-08-30T16:45:14.612Z,79.50
2018-08-30T16:47:43.666Z,79.60
2018-08-30T16:50:12.333Z,79.40
2018-08-30T16:52:41.292Z,78.90
2018-08-30T16:55:10.465Z,79.60
2018-08-30T16:57:39.244Z,79.50
2018-08-30T17:00:08.407Z,79.80
2018-08-30T17:02:37.086Z,80.20
2018-08-30T17:05:05.903Z,80.00
2018-08-30T17:07:34.637Z,80.10
2018-08-30T17:10:03.338Z,80.10
2018-08-30T17:12:32.056Z,80.70
2018-08-30T17:15:00.687Z,81.20
2018-08-30T17:17:30.133Z,81.20
2018-08-30T17:19:59.270Z,81.60
2018-08-30T17:22:27.966Z,82.00
2018-08-30T17:24:56.655Z,82.30
2018-08-30T17:27:25.371Z,82.40
2018-08-30T17:29:55.120Z,82.60
2018-08-30T17:32:24.234Z,83.10
2018-08-30T17:34:53.028Z,83.00
2018-08-30T17:37:21.751Z,83.10
2018-08-30T17:39:50.605Z,82.90
2018-08-30T17:42:19.284Z,83.00
2018-08-30T17:44:48.002Z,83.20
2018-08-30T17:47:16.672Z,83.10
2018-08-30T17:49:45.856Z,83.00
2018-08-30T17:52:14.590Z,83.10
2018-08-30T17:54:43.337Z,83.00
2018-08-30T17:57:12.149Z,82.90
2018-08-30T17:59:40.836Z,82.90
2018-08-30T18:02:09.790Z,82.90
2018-08-30T18:04:38.504Z,83.00
2018-08-30T18:07:07.238Z,82.80
2018-08-30T18:09:35.866Z,82.90
2018-08-30T18:12:04.618Z,83.00
2018-08-30T18:14:33.266Z,83.00
2018-08-30T18:17:01.926Z,83.10
2018-08-30T18:19:30.623Z,83.20
2018-08-30T18:21:59.275Z,83.40
2018-08-30T18:24:27.983Z,83.60
2018-08-30T18:26:56.604Z,83.90
2018-08-30T18:29:25.262Z,83.80
2018-08-30T18:31:53.962Z,84.10
2018-08-30T18:34:22.674Z,84.20
2018-08-30T18:36:51.342Z,84.60
2018-08-30T18:39:20.061Z,85.10
2018-08-30T18:41:48.784Z,85.60
2018-08-30T18:44:17.502Z,85.90
2018-08-30T18:46:46.147Z,86.20
2018-08-30T18:49:14.901Z,86.30
2018-08-30T18:51:43.579Z,86.80
2018-08-30T18:54:12.342Z,86.50
2018-08-30T18:56:41.078Z,86.60
2018-08-30T18:59:09.735Z,87.30
2018-08-30T19:01:38.372Z,87.90
2018-08-30T19:04:07.158Z,88.70
2018-08-30T19:06:35.806Z,88.50
2018-08-30T19:09:06.030Z,88.50
2018-08-30T19:11:34.742Z,88.60
2018-08-30T19:14:03.870Z,88.80
2018-08-30T19:16:37.983Z,88.80
2018-08-30T19:19:11.936Z,89.30
2018-08-30T19:21:40.642Z,89.50
2018-08-30T19:24:14.003Z,89.70
2018-08-30T19:26:43.149Z,89.70
2018-08-30T19:29:11.919Z,90.10
2018-08-30T19:31:40.926Z,90.20
2018-08-30T19:34:09.860Z,90.50
2018-08-30T19:36:38.586Z,90.50
2018-08-30T19:39:10.556Z,90.90
2018-08-30T19:41:39.226Z,91.10
2018-08-30T19:44:08.679Z,91.10
2018-08-30T19:46:37.320Z,91.50
2018-08-30T19:49:06.255Z,91.70
2018-08-30T19:51:35.081Z,92.00
2018-08-30T19:54:03.822Z,92.00
2018-08-30T19:56:32.441Z,92.30
2018-08-30T19:59:02.433Z,92.50
2018-08-30T20:01:31.516Z,92.60
2018-08-30T20:04:00.417Z,92.70
2018-08-30T20:06:29.300Z,92.70
2018-08-30T20:08:58.082Z,92.70
2018-08-30T20:11:26.827Z,92.60
2018-08-30T20:13:55.456Z,92.70
2018-08-30T20:16:25.307Z,92.80
2018-08-30T20:18:53.992Z,92.70
2018-08-30T20:21:22.961Z,92.70
2018-08-30T20:23:53.113Z,92.60
2018-08-30T20:26:21.738Z,92.40
2018-08-30T20:28:51.283Z,92.40
2018-08-30T20:31:20.082Z,92.30
2018-08-30T20:33:48.789Z,92.40
2018-08-30T20:36:17.507Z,92.30
2018-08-30T20:38:46.162Z,92.30
2018-08-30T20:41:14.846Z,92.50
2018-08-30T20:43:43.583Z,92.70
2018-08-30T20:46:12.411Z,92.80
2018-08-30T20:48:41.224Z,92.80
2018-08-30T20:51:09.960Z,92.70
2018-08-30T20:53:38.879Z,92.60
2018-08-30T20:56:07.545Z,92.60
2018-08-30T20:58:36.209Z,92.60
2018-08-30T21:01:05.002Z,92.40
2018-08-30T21:03:33.795Z,92.60
2018-08-30T21:06:02.630Z,92.60
2018-08-30T21:08:31.491Z,92.60
2018-08-30T21:11:00.342Z,92.60
2018-08-30T21:13:29.039Z,92.60
2018-08-30T21:15:57.703Z,92.80
2018-08-30T21:18:26.421Z,92.70
2018-08-30T21:20:55.075Z,92.70
2018-08-30T21:23:23.898Z,92.40
2018-08-30T21:25:52.639Z,92.30
2018-08-30T21:28:21.438Z,92.30
2018-08-30T21:30:50.739Z,92.20
2018-08-30T21:33:19.601Z,92.20
2018-08-30T21:35:48.334Z,92.10
2018-08-30T21:38:17.171Z,92.20
2018-08-30T21:40:46.522Z,92.30
2018-08-30T21:43:15.797Z,92.50
2018-08-30T21:45:45.082Z,92.60
2018-08-30T21:48:13.859Z,92.50
2018-08-30T21:50:42.534Z,92.60
2018-08-30T21:53:11.808Z,92.60
2018-08-30T21:55:41.104Z,92.60
2018-08-30T21:58:09.802Z,92.60
2018-08-30T22:00:38.547Z,92.60
2018-08-30T22:03:07.236Z,92.40
2018-08-30T22:05:36.297Z,92.40
2018-08-30T22:08:05.223Z,92.30
2018-08-30T22:10:34.082Z,92.20
2018-08-30T22:13:02.831Z,92.00
2018-08-30T22:15:31.567Z,92.10
2018-08-30T22:18:01.002Z,92.10
2018-08-30T22:20:29.745Z,92.20
2018-08-30T22:22:58.395Z,92.20
2018-08-30T22:25:27.032Z,92.30
2018-08-30T22:27:55.806Z,92.30
2018-08-30T22:30:25.102Z,92.80
2018-08-30T22:32:53.649Z,93.00
2018-08-30T22:35:22.382Z,92.90
2018-08-30T22:37:51.229Z,93.00
2018-08-30T22:40:20.034Z,93.20
2018-08-30T22:42:48.822Z,93.60
2018-08-30T22:45:17.531Z,93.60
2018-08-30T22:47:46.228Z,93.40
2018-08-30T22:50:14.920Z,93.40
2018-08-30T22:52:43.564Z,93.60
2018-08-30T22:55:12.788Z,93.60
2018-08-30T22:57:41.529Z,93.80
2018-08-30T23:00:10.190Z,93.60
2018-08-30T23:02:38.915Z,93.60
2018-08-30T23:05:07.906Z,93.60
2018-08-30T23:07:36.547Z,93.60
2018-08-30T23:10:05.335Z,93.70
2018-08-30T23:12:34.266Z,93.70
2018-08-30T23:15:03.258Z,93.80
2018-08-30T23:17:31.919Z,93.80
2018-08-30T23:20:00.558Z,93.90
2018-08-30T23:22:29.474Z,94.00
2018-08-30T23:24:58.382Z,94.10
2018-08-30T23:27:27.077Z,93.60
2018-08-30T23:29:55.803Z,93.60
2018-08-30T23:32:24.454Z,93.60
2018-08-30T23:34:53.470Z,93.80
2018-08-30T23:37:22.109Z,93.60
2018-08-30T23:39:54.279Z,93.60
2018-08-30T23:42:23.194Z,93.60
2018-08-30T23:44:51.982Z,93.60
2018-08-30T23:47:21.414Z,93.40
2018-08-30T23:49:50.269Z,93.20
2018-08-30T23:52:19.059Z,93.30
2018-08-30T23:54:47.770Z,93.30
2018-08-30T23:57:16.462Z,93.30
2018-08-30T23:59:56.174Z,93.60
